Time;durP1;ratioP1;P1;durP2;ratioP2;P2;SDS_P1;SDS_P2;PMS_P1;PMS_P2;Temp;Humidity;BMP_temperature;BMP_pressure;BME280_temperature;BME280_humidity;BME280_pressure;Samples;Min_cycle;Max_cycle;Signal;HPM_P1;HPM_P2
2023/05/28 00:02:18;;;;;;;29.75;12.52;;;;;;;;;;4959248;28;20085;-68
2023/05/28 00:04:46;;;;;;;38.63;14.05;;;;;;;;;;4960785;28;20088;-67
2023/05/28 00:07:11;;;;;;;27.05;13.15;;;;;;;;;;4959192;28;20031;-68
2023/05/28 00:09:37;;;;;;;31.70;13.23;;;;;;;;;;4959402;28;20085;-68
2023/05/28 00:12:02;;;;;;;35.85;13.65;;;;;;;;;;4959766;28;20534;-68
2023/05/28 00:14:28;;;;;;;40.00;13.35;;;;;;;;;;4961568;28;20047;-68
2023/05/28 00:16:54;;;;;;;34.30;13.20;;;;;;;;;;4958830;28;20031;-69
2023/05/28 00:19:19;;;;;;;33.95;13.32;;;;;;;;;;4961379;28;20037;-68
2023/05/28 00:21:44;;;;;;;32.75;12.80;;;;;;;;;;4960836;28;20041;-68
2023/05/28 00:24:10;;;;;;;34.22;15.13;;;;;;;;;;4960757;28;20030;-68
2023/05/28 00:26:36;;;;;;;31.05;15.73;;;;;;;;;;4960205;28;20055;-68
2023/05/28 00:29:02;;;;;;;37.88;14.63;;;;;;;;;;4959069;28;20035;-69
2023/05/28 00:31:27;;;;;;;30.80;13.90;;;;;;;;;;4960281;28;20039;-68
2023/05/28 00:33:52;;;;;;;34.47;13.88;;;;;;;;;;4961218;28;20090;-68
2023/05/28 00:36:18;;;;;;;34.30;13.10;;;;;;;;;;4960050;28;20031;-68
2023/05/28 00:38:43;;;;;;;34.17;12.88;;;;;;;;;;4960463;28;20471;-68
2023/05/28 00:41:08;;;;;;;31.38;12.73;;;;;;;;;;4958589;28;20031;-68
2023/05/28 00:43:35;;;;;;;32.53;12.55;;;;;;;;;;4958680;28;20502;-68
2023/05/28 00:46:01;;;;;;;31.65;12.90;;;;;;;;;;4959268;28;20043;-68
2023/05/28 00:48:28;;;;;;;30.75;12.38;;;;;;;;;;4958798;28;20030;-68
2023/05/28 00:50:56;;;;;;;33.70;12.75;;;;;;;;;;4960395;28;20042;-68
2023/05/28 00:53:21;;;;;;;32.63;13.25;;;;;;;;;;4960702;28;20060;-68
2023/05/28 00:55:47;;;;;;;31.75;13.07;;;;;;;;;;4960080;28;20121;-69
2023/05/28 00:58:15;;;;;;;31.67;12.25;;;;;;;;;;4958960;28;20074;-68
2023/05/28 01:00:43;;;;;;;32.75;13.10;;;;;;;;;;4959574;28;20027;-69
2023/05/28 01:03:09;;;;;;;32.83;12.27;;;;;;;;;;4960021;28;20448;-69
2023/05/28 01:05:34;;;;;;;24.67;12.38;;;;;;;;;;4960407;28;20023;-67
2023/05/28 01:08:03;;;;;;;29.20;12.75;;;;;;;;;;4959264;28;20039;-67
2023/05/28 01:10:29;;;;;;;31.17;12.25;;;;;;;;;;4957554;28;20035;-67
2023/05/28 01:12:57;;;;;;;29.20;12.90;;;;;;;;;;4958235;28;20064;-67
2023/05/28 01:15:23;;;;;;;32.90;12.27;;;;;;;;;;4959606;28;20054;-68
2023/05/28 01:17:49;;;;;;;33.80;13.68;;;;;;;;;;4960732;28;20105;-67
2023/05/28 01:20:15;;;;;;;32.55;12.25;;;;;;;;;;4958702;28;20498;-68
2023/05/28 01:22:45;;;;;;;40.97;14.07;;;;;;;;;;4958980;28;20534;-67
2023/05/28 01:25:12;;;;;;;37.75;13.82;;;;;;;;;;4958311;28;20035;-67
2023/05/28 01:27:40;;;;;;;36.47;15.02;;;;;;;;;;4959343;28;20392;-67
2023/05/28 01:30:09;;;;;;;33.28;15.32;;;;;;;;;;4960198;28;20046;-67
2023/05/28 01:32:38;;;;;;;34.38;14.00;;;;;;;;;;4959840;28;20207;-67
2023/05/28 01:35:04;;;;;;;31.20;13.48;;;;;;;;;;4959693;28;20084;-67
2023/05/28 01:37:30;;;;;;;33.53;14.32;;;;;;;;;;4990279;28;20029;-67
2023/05/28 01:39:57;;;;;;;36.33;12.70;;;;;;;;;;5060288;28;20405;-67
2023/05/28 01:42:22;;;;;;;35.72;13.60;;;;;;;;;;5061350;28;20077;-67
2023/05/28 01:44:49;;;;;;;36.13;16.30;;;;;;;;;;5059038;28;20477;-67
2023/05/28 01:47:15;;;;;;;35.95;15.15;;;;;;;;;;5061160;28;20496;-67
2023/05/28 01:49:40;;;;;;;26.58;13.52;;;;;;;;;;5060905;28;20124;-68
2023/05/28 01:52:06;;;;;;;30.52;14.65;;;;;;;;;;5061450;28;20489;-68
2023/05/28 01:54:31;;;;;;;34.25;16.67;;;;;;;;;;5061307;28;20028;-67
2023/05/28 01:56:57;;;;;;;40.28;17.83;;;;;;;;;;5060840;28;20457;-67
2023/05/28 01:59:22;;;;;;;33.10;14.60;;;;;;;;;;5060149;28;20035;-67
2023/05/28 02:01:47;;;;;;;33.13;14.10;;;;;;;;;;5061320;28;20033;-68
2023/05/28 02:04:13;;;;;;;31.23;13.15;;;;;;;;;;5061069;28;20147;-68
2023/05/28 02:06:40;;;;;;;33.33;13.05;;;;;;;;;;5060015;28;20131;-67
2023/05/28 02:09:05;;;;;;;33.67;12.80;;;;;;;;;;5061194;28;20086;-67
2023/05/28 02:11:31;;;;;;;33.05;12.85;;;;;;;;;;5059213;28;20123;-68
2023/05/28 02:13:56;;;;;;;32.05;13.20;;;;;;;;;;5060296;28;20048;-67
2023/05/28 02:16:22;;;;;;;24.63;11.90;;;;;;;;;;5059645;28;20595;-67
2023/05/28 02:18:49;;;;;;;31.00;11.98;;;;;;;;;;5060735;28;20025;-68
2023/05/28 02:21:16;;;;;;;28.15;12.00;;;;;;;;;;5060454;28;20109;-67
2023/05/28 02:23:45;;;;;;;30.65;12.63;;;;;;;;;;5063905;28;20032;-67
2023/05/28 02:26:10;;;;;;;26.13;11.98;;;;;;;;;;5062388;28;20031;-68
2023/05/28 02:28:38;;;;;;;32.03;12.73;;;;;;;;;;5062904;28;20428;-67
2023/05/28 02:31:03;;;;;;;32.55;13.27;;;;;;;;;;5045620;28;20029;-67
2023/05/28 02:33:32;;;;;;;27.83;12.50;;;;;;;;;;5064281;28;20123;-67
2023/05/28 02:35:57;;;;;;;31.45;12.32;;;;;;;;;;5063963;28;20162;-67
2023/05/28 02:38:22;;;;;;;32.15;12.77;;;;;;;;;;4994346;28;20106;-67
2023/05/28 02:40:48;;;;;;;30.33;11.65;;;;;;;;;;4962327;28;20593;-67
2023/05/28 02:43:14;;;;;;;30.23;13.07;;;;;;;;;;4962840;28;20170;-66
2023/05/28 02:45:39;;;;;;;29.60;13.23;;;;;;;;;;4961975;28;20037;-67
2023/05/28 02:48:05;;;;;;;38.47;17.08;;;;;;;;;;4962313;28;20202;-67
2023/05/28 02:50:30;;;;;;;36.70;16.52;;;;;;;;;;4961675;28;20256;-67
2023/05/28 02:52:56;;;;;;;34.90;14.07;;;;;;;;;;4960282;28;20119;-67
2023/05/28 02:55:21;;;;;;;35.90;14.05;;;;;;;;;;4961422;28;20038;-67
2023/05/28 02:57:47;;;;;;;35.10;13.15;;;;;;;;;;4962490;28;20041;-67
2023/05/28 03:00:12;;;;;;;33.95;13.75;;;;;;;;;;4960562;28;20200;-68
2023/05/28 03:02:37;;;;;;;29.25;12.95;;;;;;;;;;4962306;28;20096;-67
2023/05/28 03:05:03;;;;;;;33.67;12.82;;;;;;;;;;4960692;28;20038;-68
2023/05/28 03:07:29;;;;;;;31.38;12.30;;;;;;;;;;4961994;28;20053;-67
2023/05/28 03:09:56;;;;;;;27.08;12.43;;;;;;;;;;4961847;28;20037;-67
2023/05/28 03:12:21;;;;;;;31.35;11.82;;;;;;;;;;4962223;28;20043;-67
2023/05/28 03:14:46;;;;;;;34.67;13.38;;;;;;;;;;4961775;28;20039;-67
2023/05/28 03:17:11;;;;;;;28.48;12.55;;;;;;;;;;4961583;28;20038;-67
2023/05/28 03:19:37;;;;;;;34.75;13.18;;;;;;;;;;4961579;28;20112;-67
2023/05/28 03:22:02;;;;;;;32.58;12.80;;;;;;;;;;4960119;28;20030;-67
2023/05/28 03:24:27;;;;;;;32.22;12.57;;;;;;;;;;4961845;28;20050;-67
2023/05/28 03:26:53;;;;;;;40.10;13.50;;;;;;;;;;4959615;28;20026;-67
2023/05/28 03:29:18;;;;;;;40.70;14.10;;;;;;;;;;4960931;28;20034;-67
2023/05/28 03:31:47;;;;;;;31.35;12.65;;;;;;;;;;4943743;28;20047;-67
2023/05/28 03:34:12;;;;;;;29.27;13.05;;;;;;;;;;4959596;28;20093;-67
2023/05/28 03:36:40;;;;;;;32.22;13.30;;;;;;;;;;4962484;28;20035;-67
2023/05/28 03:39:06;;;;;;;30.48;12.93;;;;;;;;;;5061212;28;20028;-67
2023/05/28 03:41:31;;;;;;;35.33;13.48;;;;;;;;;;5063215;28;20336;-66
2023/05/28 03:43:56;;;;;;;37.95;14.45;;;;;;;;;;5061054;28;20031;-68
2023/05/28 03:46:21;;;;;;;31.45;12.27;;;;;;;;;;5063201;28;20029;-67
2023/05/28 03:48:47;;;;;;;33.38;12.82;;;;;;;;;;5062211;28;20051;-67
2023/05/28 03:51:12;;;;;;;31.90;13.20;;;;;;;;;;5062982;28;20048;-67
2023/05/28 03:53:37;;;;;;;32.53;12.35;;;;;;;;;;5043652;28;20040;-68
2023/05/28 03:56:07;;;;;;;29.92;12.52;;;;;;;;;;5062501;28;20520;-67
2023/05/28 03:58:35;;;;;;;32.85;12.20;;;;;;;;;;5061959;28;20121;-67
2023/05/28 04:01:00;;;;;;;30.95;12.38;;;;;;;;;;5060015;28;20041;-68
2023/05/28 04:03:25;;;;;;;29.42;11.95;;;;;;;;;;5062326;28;20309;-67
2023/05/28 04:05:51;;;;;;;31.63;12.25;;;;;;;;;;5062690;28;20087;-67
2023/05/28 04:08:17;;;;;;;32.30;12.05;;;;;;;;;;5060517;28;20089;-67
2023/05/28 04:10:42;;;;;;;28.27;11.18;;;;;;;;;;5062485;28;20037;-67
2023/05/28 04:13:07;;;;;;;25.00;11.68;;;;;;;;;;5060308;28;20404;-67
2023/05/28 04:15:33;;;;;;;32.83;12.15;;;;;;;;;;5062161;28;20024;-69
2023/05/28 04:17:58;;;;;;;32.40;11.60;;;;;;;;;;5061772;28;20037;-67
2023/05/28 04:20:24;;;;;;;22.90;10.73;;;;;;;;;;5061835;28;20040;-67
2023/05/28 04:22:51;;;;;;;28.27;10.55;;;;;;;;;;5061693;28;20051;-67
2023/05/28 04:25:18;;;;;;;24.08;10.52;;;;;;;;;;5060352;28;20056;-67
2023/05/28 04:27:44;;;;;;;33.40;10.90;;;;;;;;;;5061477;28;20082;-67
2023/05/28 04:30:10;;;;;;;24.77;10.32;;;;;;;;;;5060099;28;20028;-67
2023/05/28 04:32:38;;;;;;;24.13;10.27;;;;;;;;;;5061109;28;20485;-67
2023/05/28 04:35:08;;;;;;;23.40;9.80;;;;;;;;;;5043066;28;20417;-67
2023/05/28 04:37:36;;;;;;;25.50;10.02;;;;;;;;;;5025344;28;20084;-67
2023/05/28 04:40:02;;;;;;;18.95;9.93;;;;;;;;;;4960269;28;20189;-67
2023/05/28 04:42:28;;;;;;;23.85;9.23;;;;;;;;;;4961296;28;20471;-67
2023/05/28 04:44:53;;;;;;;23.80;9.70;;;;;;;;;;4959574;28;20037;-67
2023/05/28 04:47:22;;;;;;;21.88;8.68;;;;;;;;;;4960035;28;20133;-67
2023/05/28 04:49:50;;;;;;;25.08;9.65;;;;;;;;;;4960477;28;20037;-67
2023/05/28 04:52:18;;;;;;;20.15;8.88;;;;;;;;;;4958340;28;20035;-68
2023/05/28 04:54:45;;;;;;;21.83;9.43;;;;;;;;;;4958570;28;20130;-68
2023/05/28 04:57:10;;;;;;;20.60;8.77;;;;;;;;;;4959582;28;20042;-67
2023/05/28 04:59:35;;;;;;;27.70;8.73;;;;;;;;;;4958073;28;20462;-67
2023/05/28 05:02:00;;;;;;;16.35;8.55;;;;;;;;;;4958868;28;20038;-67
2023/05/28 05:04:26;;;;;;;18.50;8.02;;;;;;;;;;4958635;28;20200;-68
2023/05/28 05:06:51;;;;;;;19.95;7.80;;;;;;;;;;4960090;28;20182;-67
2023/05/28 05:09:16;;;;;;;17.75;8.27;;;;;;;;;;4960049;28;20039;-68
2023/05/28 05:11:41;;;;;;;19.85;7.80;;;;;;;;;;4957824;28;20045;-68
2023/05/28 05:14:07;;;;;;;17.00;7.47;;;;;;;;;;4958446;28;20035;-68
2023/05/28 05:16:32;;;;;;;16.13;7.45;;;;;;;;;;4959529;28;20117;-68
2023/05/28 05:18:58;;;;;;;17.05;7.30;;;;;;;;;;4960264;28;20095;-68
2023/05/28 05:21:24;;;;;;;17.27;7.45;;;;;;;;;;4959840;28;20031;-68
2023/05/28 05:23:50;;;;;;;16.52;7.60;;;;;;;;;;4956961;28;20502;-68
2023/05/28 05:26:18;;;;;;;17.40;7.80;;;;;;;;;;4956373;28;20023;-68
2023/05/28 05:28:46;;;;;;;19.23;7.50;;;;;;;;;;4958013;28;20126;-69
2023/05/28 05:31:15;;;;;;;15.45;7.90;;;;;;;;;;4956427;28;20080;-69
2023/05/28 05:33:41;;;;;;;16.20;7.55;;;;;;;;;;4959805;28;20450;-69
2023/05/28 05:36:07;;;;;;;19.30;7.53;;;;;;;;;;4957925;28;20267;-69
2023/05/28 05:38:32;;;;;;;15.35;7.18;;;;;;;;;;5034875;28;20024;-69
2023/05/28 05:40:58;;;;;;;19.70;7.65;;;;;;;;;;5041764;28;20047;-69
2023/05/28 05:43:25;;;;;;;15.77;7.05;;;;;;;;;;5041484;28;20035;-70
2023/05/28 05:45:50;;;;;;;17.30;7.05;;;;;;;;;;5061425;28;20031;-68
2023/05/28 05:48:18;;;;;;;16.10;7.82;;;;;;;;;;5092778;28;20024;-68
2023/05/28 05:50:46;;;;;;;17.48;7.85;;;;;;;;;;5061422;28;20044;-68
2023/05/28 05:53:12;;;;;;;23.73;8.00;;;;;;;;;;5060574;28;20044;-68
2023/05/28 05:55:37;;;;;;;19.58;7.88;;;;;;;;;;5061180;28;20020;-68
2023/05/28 05:58:02;;;;;;;18.23;7.78;;;;;;;;;;5063520;28;20202;-68
2023/05/28 06:00:30;;;;;;;18.75;7.55;;;;;;;;;;5062627;28;20025;-68
2023/05/28 06:02:56;;;;;;;19.15;7.60;;;;;;;;;;5064741;28;20029;-69
2023/05/28 06:05:21;;;;;;;17.15;7.75;;;;;;;;;;5064767;28;20119;-69
2023/05/28 06:07:47;;;;;;;17.13;7.20;;;;;;;;;;5064313;28;20031;-69
2023/05/28 06:10:12;;;;;;;16.30;8.02;;;;;;;;;;5062558;28;20434;-68
2023/05/28 06:12:38;;;;;;;15.32;7.25;;;;;;;;;;5062203;28;20032;-68
2023/05/28 06:15:03;;;;;;;16.00;7.60;;;;;;;;;;5065510;28;20060;-68
2023/05/28 06:17:29;;;;;;;19.35;7.90;;;;;;;;;;5065438;28;20132;-71
2023/05/28 06:19:54;;;;;;;16.25;7.25;;;;;;;;;;5088834;28;20025;-72
2023/05/28 06:22:20;;;;;;;18.98;7.80;;;;;;;;;;5068026;28;20481;-71
2023/05/28 06:24:46;;;;;;;17.00;6.18;;;;;;;;;;5066165;28;20028;-71
2023/05/28 06:27:11;;;;;;;16.77;6.85;;;;;;;;;;5065626;28;20030;-72
2023/05/28 06:29:37;;;;;;;17.67;6.57;;;;;;;;;;5066069;28;20049;-71
2023/05/28 06:32:02;;;;;;;18.42;7.35;;;;;;;;;;5062782;28;20078;-72
2023/05/28 06:34:27;;;;;;;17.55;7.45;;;;;;;;;;5065443;28;20021;-72
2023/05/28 06:36:55;;;;;;;15.25;7.30;;;;;;;;;;5060032;28;20024;-72
2023/05/28 06:39:20;;;;;;;15.63;6.63;;;;;;;;;;4963076;28;20019;-71
2023/05/28 06:41:46;;;;;;;16.35;7.90;;;;;;;;;;4961423;28;20092;-71
2023/05/28 06:44:11;;;;;;;16.42;6.97;;;;;;;;;;4962952;28;20019;-71
2023/05/28 06:46:39;;;;;;;15.98;7.75;;;;;;;;;;4961977;28;20068;-72
2023/05/28 06:49:06;;;;;;;21.25;7.95;;;;;;;;;;4961676;28;20038;-71
2023/05/28 06:51:32;;;;;;;16.08;7.30;;;;;;;;;;4962213;28;20034;-71
2023/05/28 06:53:57;;;;;;;14.75;6.82;;;;;;;;;;4962142;28;20373;-71
2023/05/28 06:56:23;;;;;;;20.85;6.93;;;;;;;;;;4961731;28;20070;-72
2023/05/28 06:58:50;;;;;;;17.60;7.43;;;;;;;;;;4962662;28;20042;-72
2023/05/28 07:01:16;;;;;;;13.88;7.10;;;;;;;;;;4961875;28;20027;-72
2023/05/28 07:03:41;;;;;;;15.45;6.72;;;;;;;;;;4959857;28;20484;-72
2023/05/28 07:06:07;;;;;;;17.45;6.45;;;;;;;;;;4961344;28;20034;-72
2023/05/28 07:08:32;;;;;;;14.93;7.47;;;;;;;;;;4959026;28;20522;-73
2023/05/28 07:10:57;;;;;;;15.05;7.60;;;;;;;;;;4960452;28;20522;-72
2023/05/28 07:13:23;;;;;;;18.45;7.07;;;;;;;;;;4960629;28;20031;-72
2023/05/28 07:15:48;;;;;;;13.57;6.88;;;;;;;;;;4960776;28;20462;-72
2023/05/28 07:18:14;;;;;;;16.23;7.13;;;;;;;;;;4959822;28;20491;-72
2023/05/28 07:20:39;;;;;;;15.05;7.35;;;;;;;;;;4961268;28;20035;-72
2023/05/28 07:23:04;;;;;;;14.48;7.13;;;;;;;;;;4961473;28;20042;-73
2023/05/28 07:25:30;;;;;;;13.70;6.47;;;;;;;;;;4957153;28;20644;-75
2023/05/28 07:27:57;;;;;;;13.57;6.57;;;;;;;;;;4943060;28;20438;-74
2023/05/28 07:30:22;;;;;;;15.43;6.90;;;;;;;;;;4942778;28;20031;-74
2023/05/28 07:32:48;;;;;;;16.83;6.90;;;;;;;;;;4942444;28;20039;-75
2023/05/28 07:35:13;;;;;;;15.32;6.53;;;;;;;;;;4925322;28;20027;-75
2023/05/28 07:37:38;;;;;;;12.75;6.68;;;;;;;;;;4985834;28;20127;-74
2023/05/28 07:40:05;;;;;;;13.50;6.63;;;;;;;;;;5062575;28;20107;-74
2023/05/28 07:42:30;;;;;;;17.00;6.60;;;;;;;;;;5061882;28;20025;-73
2023/05/28 07:44:55;;;;;;;16.45;6.72;;;;;;;;;;5060694;28;20025;-74
2023/05/28 07:47:23;;;;;;;13.95;6.88;;;;;;;;;;5060571;28;20393;-72
2023/05/28 07:49:48;;;;;;;19.95;7.28;;;;;;;;;;5060679;28;20036;-75
2023/05/28 07:52:13;;;;;;;20.40;6.95;;;;;;;;;;5060709;28;20028;-73
2023/05/28 07:54:42;;;;;;;17.02;6.63;;;;;;;;;;5060904;28;20028;-74
2023/05/28 07:57:08;;;;;;;14.63;6.93;;;;;;;;;;5062757;28;20056;-75
2023/05/28 07:59:33;;;;;;;19.45;6.80;;;;;;;;;;4979638;28;20157;-75
2023/05/28 08:01:59;;;;;;;16.52;6.63;;;;;;;;;;4959278;28;20088;-75
2023/05/28 08:04:24;;;;;;;12.68;6.22;;;;;;;;;;4960777;28;20085;-76
2023/05/28 08:06:50;;;;;;;14.07;6.60;;;;;;;;;;4927795;28;20038;-72
2023/05/28 08:09:17;;;;;;;15.18;7.20;;;;;;;;;;4961785;28;20425;-74
2023/05/28 08:11:46;;;;;;;15.15;6.78;;;;;;;;;;4959326;28;20071;-74
2023/05/28 08:14:13;;;;;;;16.77;7.35;;;;;;;;;;4960439;28;20136;-74
2023/05/28 08:16:39;;;;;;;15.90;6.88;;;;;;;;;;4960769;28;20273;-74
2023/05/28 08:19:04;;;;;;;13.52;7.13;;;;;;;;;;4960073;28;20486;-74
2023/05/28 08:21:30;;;;;;;15.32;6.72;;;;;;;;;;4959656;28;20084;-75
2023/05/28 08:23:55;;;;;;;14.52;6.10;;;;;;;;;;4960983;28;20490;-74
2023/05/28 08:26:21;;;;;;;14.68;6.75;;;;;;;;;;4958986;28;20023;-74
2023/05/28 08:28:46;;;;;;;13.15;6.47;;;;;;;;;;4960413;28;20077;-74
2023/05/28 08:31:12;;;;;;;16.27;6.57;;;;;;;;;;4958106;28;20663;-75
2023/05/28 08:33:37;;;;;;;15.70;6.55;;;;;;;;;;4960629;28;20041;-73
2023/05/28 08:36:02;;;;;;;11.60;6.15;;;;;;;;;;4961147;28;20110;-74
2023/05/28 08:38:29;;;;;;;15.82;6.20;;;;;;;;;;5034336;28;20024;-75
2023/05/28 08:40:55;;;;;;;12.18;6.25;;;;;;;;;;5062135;28;20025;-75
2023/05/28 08:43:20;;;;;;;14.90;6.07;;;;;;;;;;5061828;28;20055;-75
2023/05/28 08:45:46;;;;;;;13.85;6.13;;;;;;;;;;5061675;28;20024;-76
2023/05/28 08:48:12;;;;;;;12.95;5.85;;;;;;;;;;5043119;28;20082;-74
2023/05/28 08:50:39;;;;;;;14.02;6.78;;;;;;;;;;5061544;28;20051;-76
2023/05/28 08:53:07;;;;;;;16.02;7.47;;;;;;;;;;5042610;28;20239;-77
2023/05/28 08:55:32;;;;;;;17.55;6.80;;;;;;;;;;5061074;28;20052;-75
2023/05/28 08:57:58;;;;;;;13.55;6.10;;;;;;;;;;5061888;28;20052;-74
2023/05/28 09:00:28;;;;;;;18.00;7.07;;;;;;;;;;5059554;28;20040;-76
2023/05/28 09:02:53;;;;;;;14.18;7.00;;;;;;;;;;5060673;28;20025;-78
2023/05/28 09:05:18;;;;;;;12.43;6.32;;;;;;;;;;5010707;28;20085;-75
2023/05/28 09:07:44;;;;;;;15.18;6.45;;;;;;;;;;4939544;28;20101;-77
2023/05/28 09:10:11;;;;;;;15.85;6.82;;;;;;;;;;4939596;28;20507;-77
2023/05/28 09:12:37;;;;;;;17.50;6.82;;;;;;;;;;4940853;28;20349;-76
2023/05/28 09:15:05;;;;;;;11.88;5.95;;;;;;;;;;4938866;28;20045;-75
2023/05/28 09:17:35;;;;;;;14.23;5.72;;;;;;;;;;4941528;28;20488;-82
2023/05/28 09:20:02;;;;;;;14.23;5.93;;;;;;;;;;4940918;28;20031;-76
2023/05/28 09:22:29;;;;;;;13.02;5.95;;;;;;;;;;4940937;28;21168;-78
2023/05/28 09:24:55;;;;;;;15.63;6.32;;;;;;;;;;4939109;28;20024;-77
2023/05/28 09:27:21;;;;;;;13.98;6.18;;;;;;;;;;4941379;28;20557;-78
2023/05/28 09:29:47;;;;;;;11.73;5.85;;;;;;;;;;4941056;28;20047;-76
2023/05/28 09:32:16;;;;;;;11.57;5.70;;;;;;;;;;4943988;28;20055;-79
2023/05/28 09:34:45;;;;;;;11.57;5.93;;;;;;;;;;4943812;28;20476;-75
2023/05/28 09:37:11;;;;;;;13.27;5.47;;;;;;;;;;4997577;28;20021;-76
2023/05/28 09:39:36;;;;;;;15.05;5.57;;;;;;;;;;5063876;28;20021;-75
2023/05/28 09:42:12;;;;;;;15.02;5.82;;;;;;;;;;5062963;28;20020;-77
2023/05/28 09:44:42;;;;;;;15.02;5.32;;;;;;;;;;5082561;28;20530;-78
2023/05/28 09:47:15;;;;;;;13.73;5.70;;;;;;;;;;4972171;28;20027;-77
2023/05/28 09:49:47;;;;;;;15.10;5.72;;;;;;;;;;4948029;28;20051;-76
2023/05/28 09:52:19;;;;;;;16.10;5.93;;;;;;;;;;4961574;28;20522;-79
2023/05/28 09:54:59;;;;;;;15.40;6.53;;;;;;;;;;4952675;28;20020;-77
2023/05/28 09:57:29;;;;;;;16.17;6.05;;;;;;;;;;4943698;28;20067;-79
2023/05/28 09:59:55;;;;;;;14.35;5.88;;;;;;;;;;4943621;28;20535;-77
2023/05/28 10:02:40;;;;;;;14.07;5.57;;;;;;;;;;4944067;28;20036;-77
2023/05/28 10:05:07;;;;;;;15.02;5.88;;;;;;;;;;4943139;28;20023;-73
2023/05/28 10:07:33;;;;;;;13.43;6.10;;;;;;;;;;4944752;28;20070;-80
2023/05/28 10:10:01;;;;;;;16.27;5.97;;;;;;;;;;4945471;28;20185;-76
2023/05/28 10:12:28;;;;;;;13.90;5.82;;;;;;;;;;4974535;28;20039;-78
2023/05/28 10:14:54;;;;;;;12.95;5.47;;;;;;;;;;4975253;28;20134;-79
2023/05/28 10:17:21;;;;;;;15.63;5.97;;;;;;;;;;4973594;28;20123;-76
2023/05/28 10:19:46;;;;;;;13.73;6.07;;;;;;;;;;4944332;28;20060;-79
2023/05/28 10:22:12;;;;;;;15.68;6.13;;;;;;;;;;4944686;28;20024;-77
2023/05/28 10:24:37;;;;;;;18.45;6.03;;;;;;;;;;4945306;28;20096;-78
2023/05/28 10:27:12;;;;;;;13.60;5.53;;;;;;;;;;4958709;28;20134;-76
2023/05/28 10:29:41;;;;;;;15.07;5.88;;;;;;;;;;4944417;28;20031;-75
2023/05/28 10:32:07;;;;;;;16.40;5.75;;;;;;;;;;4973669;28;20024;-76
2023/05/28 10:34:32;;;;;;;11.50;5.10;;;;;;;;;;4944633;28;20077;-75
2023/05/28 10:37:05;;;;;;;12.80;5.28;;;;;;;;;;4986205;28;20028;-76
2023/05/28 10:39:57;;;;;;;12.30;5.47;;;;;;;;;;5064662;28;20082;-79
2023/05/28 10:42:25;;;;;;;12.10;4.75;;;;;;;;;;5061166;28;20025;-76
2023/05/28 10:44:59;;;;;;;12.82;5.20;;;;;;;;;;5064588;28;20025;-75
2023/05/28 10:47:36;;;;;;;13.95;5.35;;;;;;;;;;5064407;28;20047;-76
2023/05/28 10:50:04;;;;;;;11.35;5.78;;;;;;;;;;5063987;28;20025;-78
2023/05/28 10:52:30;;;;;;;12.98;6.07;;;;;;;;;;5063607;28;20036;-75
2023/05/28 10:54:55;;;;;;;10.43;5.25;;;;;;;;;;5064757;28;20523;-77
2023/05/28 10:57:21;;;;;;;10.77;4.90;;;;;;;;;;5062783;28;20094;-74
2023/05/28 10:59:48;;;;;;;12.93;4.57;;;;;;;;;;5065112;28;20017;-75
2023/05/28 11:02:26;;;;;;;8.40;4.60;;;;;;;;;;5064066;28;20104;-75
2023/05/28 11:05:01;;;;;;;9.70;4.95;;;;;;;;;;5064794;28;20061;-78
2023/05/28 11:07:30;;;;;;;13.65;5.25;;;;;;;;;;5064286;28;20025;-78
2023/05/28 11:09:56;;;;;;;10.70;5.80;;;;;;;;;;5062197;28;20021;-77
2023/05/28 11:12:22;;;;;;;10.43;5.28;;;;;;;;;;5063595;28;20041;-75
2023/05/28 11:14:51;;;;;;;11.25;5.10;;;;;;;;;;5063454;28;20473;-75
2023/05/28 11:17:19;;;;;;;9.75;4.85;;;;;;;;;;5034161;28;20571;-74
2023/05/28 11:19:46;;;;;;;9.10;5.03;;;;;;;;;;4941893;28;20106;-74
2023/05/28 11:22:12;;;;;;;7.68;4.80;;;;;;;;;;4972440;28;20031;-74
2023/05/28 11:25:00;;;;;;;7.40;4.38;;;;;;;;;;4941588;28;20027;-75
2023/05/28 11:27:30;;;;;;;9.10;4.53;;;;;;;;;;4942470;28;20563;-78
2023/05/28 11:29:57;;;;;;;8.77;5.03;;;;;;;;;;4941077;28;20023;-75
2023/05/28 11:32:23;;;;;;;9.80;4.40;;;;;;;;;;4945402;28;20031;-76
2023/05/28 11:34:49;;;;;;;6.53;4.53;;;;;;;;;;4934200;28;20038;-75
2023/05/28 11:37:14;;;;;;;8.15;4.68;;;;;;;;;;4961995;28;20036;-79
2023/05/28 11:39:47;;;;;;;9.77;4.95;;;;;;;;;;5059959;28;20496;-78
2023/05/28 11:42:13;;;;;;;9.68;4.72;;;;;;;;;;5002074;28;20039;-76
2023/05/28 11:44:42;;;;;;;9.85;4.80;;;;;;;;;;4954826;28;20035;-80
2023/05/28 11:47:08;;;;;;;8.82;4.57;;;;;;;;;;4940303;28;20054;-74
2023/05/28 11:49:36;;;;;;;7.57;4.20;;;;;;;;;;4942154;28;20055;-73
2023/05/28 11:52:04;;;;;;;9.25;4.47;;;;;;;;;;4937477;28;20508;-73
2023/05/28 11:54:30;;;;;;;10.77;4.53;;;;;;;;;;4937171;28;20047;-71
2023/05/28 11:56:56;;;;;;;7.28;4.10;;;;;;;;;;4936973;28;20062;-74
2023/05/28 11:59:25;;;;;;;7.28;4.60;;;;;;;;;;4940719;28;20047;-72
2023/05/28 12:01:51;;;;;;;9.07;4.63;;;;;;;;;;4942031;28;20031;-76
2023/05/28 12:04:21;;;;;;;8.07;4.65;;;;;;;;;;4938496;28;20038;-74
2023/05/28 12:06:53;;;;;;;7.88;4.68;;;;;;;;;;4941411;28;20024;-73
2023/05/28 12:09:19;;;;;;;9.15;4.68;;;;;;;;;;4941826;28;20201;-74
2023/05/28 12:12:01;;;;;;;9.30;5.30;;;;;;;;;;4940905;28;20551;-76
2023/05/28 12:14:29;;;;;;;10.32;5.53;;;;;;;;;;4940142;28;20035;-75
2023/05/28 12:16:55;;;;;;;7.72;5.03;;;;;;;;;;4967394;28;20114;-72
2023/05/28 12:19:20;;;;;;;7.68;5.20;;;;;;;;;;4939354;28;20519;-73
2023/05/28 12:21:45;;;;;;;8.45;5.43;;;;;;;;;;4941763;28;20059;-74
2023/05/28 12:24:11;;;;;;;9.13;5.50;;;;;;;;;;4940291;28;20020;-74
2023/05/28 12:26:37;;;;;;;12.13;6.00;;;;;;;;;;4969189;28;20158;-73
2023/05/28 12:29:03;;;;;;;8.25;5.63;;;;;;;;;;4943684;28;20027;-73
2023/05/28 12:31:33;;;;;;;8.45;5.25;;;;;;;;;;4930813;28;20058;-74
2023/05/28 12:34:04;;;;;;;9.30;5.07;;;;;;;;;;4943228;28;20088;-74
2023/05/28 12:36:29;;;;;;;8.80;5.38;;;;;;;;;;4957476;28;20487;-76
2023/05/28 12:38:55;;;;;;;8.70;5.18;;;;;;;;;;5000497;28;20042;-73
2023/05/28 12:41:21;;;;;;;7.65;4.95;;;;;;;;;;4959094;28;20050;-74
2023/05/28 12:43:46;;;;;;;7.60;4.60;;;;;;;;;;4958143;28;20027;-76
2023/05/28 12:46:12;;;;;;;9.10;4.88;;;;;;;;;;4959233;28;20116;-75
2023/05/28 12:48:37;;;;;;;9.32;4.82;;;;;;;;;;4956934;28;20121;-72
2023/05/28 12:51:06;;;;;;;8.18;4.82;;;;;;;;;;4957005;28;20031;-73
2023/05/28 12:53:31;;;;;;;12.32;4.60;;;;;;;;;;4939842;28;20510;-74
2023/05/28 12:55:56;;;;;;;9.30;4.32;;;;;;;;;;4958986;28;20031;-73
2023/05/28 12:58:23;;;;;;;8.68;4.18;;;;;;;;;;4958489;28;20133;-76
2023/05/28 13:00:49;;;;;;;8.43;4.05;;;;;;;;;;4960511;28;20042;-75
2023/05/28 13:03:14;;;;;;;8.57;4.20;;;;;;;;;;4958618;28;20033;-73
2023/05/28 13:05:39;;;;;;;8.38;4.15;;;;;;;;;;4958237;28;20023;-74
2023/05/28 13:08:04;;;;;;;8.98;3.90;;;;;;;;;;4960011;28;20535;-75
2023/05/28 13:10:30;;;;;;;9.73;3.85;;;;;;;;;;4958439;28;20094;-75
2023/05/28 13:12:55;;;;;;;7.20;3.80;;;;;;;;;;4959898;28;24178;-74
2023/05/28 13:15:21;;;;;;;9.68;3.67;;;;;;;;;;4958095;28;20042;-74
2023/05/28 13:17:46;;;;;;;6.55;3.28;;;;;;;;;;4958254;28;20031;-76
2023/05/28 13:20:12;;;;;;;7.43;3.72;;;;;;;;;;4959723;28;20027;-76
2023/05/28 13:22:38;;;;;;;7.35;3.58;;;;;;;;;;4942069;28;20585;-73
2023/05/28 13:25:04;;;;;;;11.02;3.90;;;;;;;;;;4957444;28;20046;-75
2023/05/28 13:27:30;;;;;;;7.13;3.75;;;;;;;;;;4959520;28;20039;-74
2023/05/28 13:29:58;;;;;;;8.50;3.50;;;;;;;;;;4959383;28;20106;-73
2023/05/28 13:32:23;;;;;;;9.75;3.53;;;;;;;;;;4991079;28;20222;-76
2023/05/28 13:34:48;;;;;;;8.20;3.70;;;;;;;;;;4959601;28;20470;-76
2023/05/28 13:37:14;;;;;;;9.65;3.63;;;;;;;;;;4981782;28;20027;-75
2023/05/28 13:39:39;;;;;;;8.05;3.28;;;;;;;;;;5060386;28;20334;-74
2023/05/28 13:42:06;;;;;;;6.00;3.20;;;;;;;;;;5061224;28;20452;-75
2023/05/28 13:44:34;;;;;;;8.23;3.15;;;;;;;;;;5058503;28;20024;-74
2023/05/28 13:47:00;;;;;;;6.63;3.40;;;;;;;;;;5060938;28;20117;-72
2023/05/28 13:49:26;;;;;;;8.68;3.55;;;;;;;;;;5059596;28;20016;-75
2023/05/28 13:51:53;;;;;;;11.30;3.53;;;;;;;;;;5059246;28;20107;-75
2023/05/28 13:54:19;;;;;;;6.90;3.30;;;;;;;;;;5059211;28;20120;-75
2023/05/28 13:56:45;;;;;;;10.70;3.40;;;;;;;;;;5060951;28;20149;-76
2023/05/28 13:59:10;;;;;;;9.23;3.10;;;;;;;;;;5058459;28;20094;-75
2023/05/28 14:01:36;;;;;;;7.07;3.35;;;;;;;;;;5059151;28;20025;-74
2023/05/28 14:04:01;;;;;;;7.80;2.75;;;;;;;;;;5058929;28;20572;-72
2023/05/28 14:06:28;;;;;;;9.57;3.42;;;;;;;;;;5059596;28;20055;-75
2023/05/28 14:08:54;;;;;;;10.48;3.70;;;;;;;;;;5057791;28;20040;-74
2023/05/28 14:11:20;;;;;;;10.77;3.58;;;;;;;;;;5061604;28;20028;-75
2023/05/28 14:13:46;;;;;;;9.68;3.58;;;;;;;;;;5059953;28;20032;-73
2023/05/28 14:16:11;;;;;;;8.85;3.47;;;;;;;;;;5060764;28;20049;-74
2023/05/28 14:18:37;;;;;;;8.82;3.25;;;;;;;;;;5095199;28;20033;-75
2023/05/28 14:21:02;;;;;;;10.82;3.15;;;;;;;;;;5062581;28;20032;-73
2023/05/28 14:23:27;;;;;;;8.82;2.97;;;;;;;;;;5063296;28;20040;-77
2023/05/28 14:25:53;;;;;;;10.55;3.10;;;;;;;;;;5064605;28;20028;-74